createdAt,value
2023-03-22T00:00:14.461Z,98099.31
2023-03-22T00:03:03.249Z,98106.06
2023-03-22T00:05:31.652Z,98097.69
2023-03-22T00:08:00.550Z,98094.16
2023-03-22T00:10:29.840Z,98086.88
2023-03-22T00:12:59.974Z,98099.25
2023-03-22T00:15:29.660Z,98098.78
2023-03-22T00:17:59.139Z,98093.31
2023-03-22T00:20:30.445Z,98101.41
2023-03-22T00:22:59.330Z,98100.09
2023-03-22T00:25:27.922Z,98087.38
2023-03-22T00:27:56.455Z,98092.13
2023-03-22T00:30:26.320Z,98088.75
2023-03-22T00:32:54.937Z,98081.31
2023-03-22T00:35:23.332Z,98079.56
2023-03-22T00:37:52.017Z,98081.13
2023-03-22T00:40:20.643Z,98084.88
2023-03-22T00:42:49.164Z,98078.06
2023-03-22T00:45:17.561Z,98078.75
2023-03-22T00:47:47.669Z,98071.53
2023-03-22T00:50:16.065Z,98065.91
2023-03-22T00:52:44.806Z,98060.78
2023-03-22T00:55:13.179Z,98063.41
2023-03-22T00:57:41.661Z,98066.31
2023-03-22T01:00:13.759Z,98067.13
2023-03-22T01:02:42.655Z,98064.81
2023-03-22T01:05:15.773Z,98065.06
2023-03-22T01:07:44.998Z,98064.22
2023-03-22T01:10:13.896Z,98067.16
2023-03-22T01:12:42.536Z,98061.03
2023-03-22T01:15:11.696Z,98059.13
2023-03-22T01:17:40.552Z,98059.56
2023-03-22T01:20:10.090Z,98051.31
2023-03-22T01:22:40.188Z,98048.19
2023-03-22T01:25:09.539Z,98044.22
2023-03-22T01:27:38.306Z,98042.28
2023-03-22T01:30:07.599Z,98034.03
2023-03-22T01:32:37.787Z,98022.66
2023-03-22T01:35:06.917Z,98020.09
2023-03-22T01:37:35.775Z,98017.00
2023-03-22T01:40:06.623Z,98028.59
2023-03-22T01:42:35.232Z,98029.84
2023-03-22T01:45:34.930Z,98028.16
2023-03-22T01:48:06.907Z,98031.56
2023-03-22T01:50:37.685Z,98032.41
2023-03-22T01:53:07.755Z,98033.06
2023-03-22T01:55:38.502Z,98027.53
2023-03-22T01:58:07.115Z,98024.34
2023-03-22T02:00:35.525Z,98024.69
2023-03-22T02:03:04.152Z,98025.63
2023-03-22T02:05:33.040Z,98014.56
2023-03-22T02:08:02.214Z,98006.09
2023-03-22T02:10:30.700Z,97999.41
2023-03-22T02:13:13.208Z,97999.28
2023-03-22T02:15:47.174Z,97995.13
2023-03-22T02:18:34.235Z,98001.22
2023-03-22T02:21:29.310Z,97997.19
2023-03-22T02:24:14.260Z,98005.94
2023-03-22T02:27:06.512Z,97999.31
2023-03-22T02:29:41.584Z,97992.25
2023-03-22T02:32:42.429Z,97990.53
2023-03-22T02:35:40.826Z,97985.84
2023-03-22T02:38:24.102Z,97987.47
2023-03-22T02:40:56.260Z,97979.22
2023-03-22T02:43:34.388Z,97979.91
2023-03-22T02:46:06.650Z,97980.41
2023-03-22T02:48:39.682Z,97981.75
2023-03-22T02:51:11.692Z,97973.22
2023-03-22T02:53:43.851Z,97975.78
2023-03-22T02:56:16.212Z,97974.75
2023-03-22T02:58:46.580Z,97967.22
2023-03-22T03:01:21.113Z,97967.41
2023-03-22T03:03:51.243Z,97961.91
2023-03-22T03:06:21.712Z,97965.34
2023-03-22T03:08:51.962Z,97976.06
2023-03-22T03:11:22.490Z,97972.19
2023-03-22T03:13:51.311Z,97973.06
2023-03-22T03:16:22.428Z,97972.25
2023-03-22T03:18:54.686Z,97978.66
2023-03-22T03:21:32.751Z,97985.91
2023-03-22T03:24:13.985Z,97977.41
2023-03-22T03:26:44.893Z,97981.94
2023-03-22T03:29:16.379Z,97983.78
2023-03-22T03:31:48.447Z,97997.19
2023-03-22T03:34:21.523Z,97992.56
2023-03-22T03:36:55.285Z,97992.81
2023-03-22T03:39:25.852Z,97998.22
2023-03-22T03:41:56.885Z,97996.19
2023-03-22T03:44:25.651Z,97998.31
2023-03-22T03:46:54.343Z,97994.50
2023-03-22T03:49:23.588Z,97991.16
2023-03-22T03:51:53.700Z,97992.22
2023-03-22T03:54:22.624Z,97993.00
2023-03-22T03:56:51.183Z,97993.34
2023-03-22T03:59:21.925Z,97988.75
2023-03-22T04:01:51.965Z,97995.84
2023-03-22T04:04:26.687Z,98000.97
2023-03-22T04:06:57.073Z,98004.47
2023-03-22T04:09:27.108Z,98001.63
2023-03-22T04:11:56.143Z,97999.28
2023-03-22T04:14:26.773Z,97991.88
2023-03-22T04:16:56.001Z,97985.47
2023-03-22T04:19:24.498Z,97988.69
2023-03-22T04:21:53.912Z,97997.09
2023-03-22T04:24:22.859Z,97994.91
2023-03-22T04:26:52.552Z,97991.47
2023-03-22T04:29:22.157Z,97986.19
2023-03-22T04:31:53.275Z,97994.13
2023-03-22T04:34:21.650Z,97987.19
2023-03-22T04:36:50.868Z,97990.22
2023-03-22T04:39:19.215Z,97990.19
2023-03-22T04:41:47.803Z,97987.94
2023-03-22T04:44:16.237Z,97986.13
2023-03-22T04:46:44.982Z,97990.53
2023-03-22T04:49:14.631Z,97995.25
2023-03-22T04:51:43.346Z,97992.28
2023-03-22T04:54:11.700Z,97997.81
2023-03-22T04:56:40.423Z,97994.47
2023-03-22T04:59:08.651Z,98001.16
2023-03-22T05:01:37.706Z,97999.63
2023-03-22T05:04:06.228Z,97997.25
2023-03-22T05:06:36.294Z,97999.44
2023-03-22T05:09:05.166Z,98002.56
2023-03-22T05:11:33.900Z,97995.91
2023-03-22T05:14:02.113Z,97988.50
2023-03-22T05:16:30.767Z,97989.91
2023-03-22T05:18:59.303Z,97989.63
2023-03-22T05:21:29.252Z,97983.66
2023-03-22T05:24:00.515Z,97997.09
2023-03-22T05:26:29.209Z,97994.25
2023-03-22T05:28:58.447Z,97993.69
2023-03-22T05:31:28.811Z,97989.75
2023-03-22T05:33:57.652Z,97989.19
2023-03-22T05:36:29.725Z,97992.97
2023-03-22T05:38:59.543Z,97991.84
2023-03-22T05:41:28.425Z,97986.47
2023-03-22T05:43:56.940Z,97996.34
2023-03-22T05:46:25.814Z,98002.28
2023-03-22T05:48:54.154Z,97999.44
2023-03-22T05:51:25.974Z,98000.47
2023-03-22T05:53:54.680Z,98001.59
2023-03-22T05:56:25.885Z,98003.66
2023-03-22T05:58:54.235Z,98007.78
2023-03-22T06:01:23.247Z,98006.00
2023-03-22T06:03:51.531Z,98006.88
2023-03-22T06:06:20.208Z,98003.38
2023-03-22T06:08:48.550Z,98006.19
2023-03-22T06:11:18.621Z,98004.50
2023-03-22T06:13:48.334Z,98000.63
2023-03-22T06:16:16.903Z,98005.56
2023-03-22T06:18:45.428Z,98010.13
2023-03-22T06:21:14.136Z,98003.53
2023-03-22T06:23:43.785Z,98006.44
2023-03-22T06:26:12.609Z,97999.72
2023-03-22T06:28:40.823Z,98001.94
2023-03-22T06:31:11.454Z,98001.84
2023-03-22T06:33:39.850Z,98006.44
2023-03-22T06:36:08.962Z,97996.25
2023-03-22T06:38:37.271Z,97995.09
2023-03-22T06:41:06.563Z,97990.84
2023-03-22T06:43:35.410Z,97996.75
2023-03-22T06:46:04.272Z,97998.69
2023-03-22T06:48:34.057Z,97994.69
2023-03-22T06:51:02.670Z,97996.44
2023-03-22T06:53:31.021Z,97997.88
2023-03-22T06:56:01.917Z,98006.22
2023-03-22T06:58:30.325Z,97997.28
2023-03-22T07:00:59.062Z,98007.53
2023-03-22T07:03:27.625Z,97997.28
2023-03-22T07:06:03.546Z,98007.69
2023-03-22T07:08:31.949Z,98003.94
2023-03-22T07:11:00.549Z,98007.06
2023-03-22T07:13:29.221Z,98003.13
2023-03-22T07:15:58.425Z,98009.13
2023-03-22T07:18:27.264Z,98013.69
2023-03-22T07:20:55.973Z,98006.00
2023-03-22T07:23:26.090Z,98007.19
2023-03-22T07:25:56.136Z,98009.16
2023-03-22T07:28:24.999Z,98012.06
2023-03-22T07:31:01.373Z,98009.78
2023-03-22T07:33:29.660Z,98015.75
2023-03-22T07:35:58.259Z,98011.38
2023-03-22T07:38:28.051Z,98008.09
2023-03-22T07:40:56.778Z,98006.56
2023-03-22T07:43:27.451Z,98004.63
2023-03-22T07:45:56.231Z,97999.72
2023-03-22T07:48:25.175Z,98002.53
2023-03-22T07:50:57.435Z,98001.81
2023-03-22T07:53:28.032Z,98010.91
2023-03-22T07:55:56.602Z,97999.69
2023-03-22T07:58:24.969Z,97998.00
2023-03-22T08:00:53.797Z,97996.94
2023-03-22T08:03:23.377Z,97988.84
2023-03-22T08:05:52.157Z,97985.41
2023-03-22T08:08:20.788Z,97994.63
2023-03-22T08:10:53.645Z,97986.56
2023-03-22T08:13:21.859Z,97991.28
2023-03-22T08:15:50.628Z,97991.81
2023-03-22T08:18:19.058Z,98000.56
2023-03-22T08:20:47.917Z,97992.66
2023-03-22T08:23:16.957Z,97993.63
2023-03-22T08:25:45.842Z,97991.59
2023-03-22T08:28:16.020Z,97984.44
2023-03-22T08:30:45.222Z,97992.03
2023-03-22T08:33:13.627Z,97983.94
2023-03-22T08:35:42.852Z,97982.63
2023-03-22T08:38:11.242Z,97997.00
2023-03-22T08:40:40.055Z,97988.03
2023-03-22T08:43:08.726Z,97986.47
2023-03-22T08:45:39.200Z,97981.59
2023-03-22T08:48:08.157Z,97985.34
2023-03-22T08:50:37.032Z,97990.25
2023-03-22T08:53:05.772Z,97981.38
2023-03-22T08:55:35.629Z,97975.63
2023-03-22T08:58:04.845Z,97977.53
2023-03-22T09:00:45.991Z,97975.69
2023-03-22T09:03:18.063Z,97967.34
2023-03-22T09:05:46.652Z,97961.59
2023-03-22T09:08:19.267Z,97972.56
2023-03-22T09:10:51.857Z,97966.16
2023-03-22T09:13:21.106Z,97974.53
2023-03-22T09:15:49.996Z,97963.88
2023-03-22T09:18:19.854Z,97964.69
2023-03-22T09:20:48.729Z,97964.97
2023-03-22T09:23:17.314Z,97962.28
2023-03-22T09:25:46.419Z,97961.69
2023-03-22T09:28:15.357Z,97955.69
2023-03-22T09:30:44.910Z,97956.91
2023-03-22T09:33:14.694Z,97957.69
2023-03-22T09:35:45.153Z,97949.91
2023-03-22T09:38:13.908Z,97944.31
2023-03-22T09:40:48.047Z,97949.56
2023-03-22T09:43:16.809Z,97941.94
2023-03-22T09:45:48.572Z,97941.94
2023-03-22T09:48:20.162Z,97946.94
2023-03-22T09:50:53.387Z,97933.56
2023-03-22T09:53:23.017Z,97934.00
2023-03-22T09:55:55.806Z,97937.78
2023-03-22T09:58:27.135Z,97924.56
2023-03-22T10:00:59.549Z,97929.44
2023-03-22T10:03:45.451Z,97922.50
2023-03-22T10:06:19.737Z,97929.09
2023-03-22T10:08:53.516Z,97929.94
2023-03-22T10:11:27.644Z,97933.22
2023-03-22T10:14:01.803Z,97928.03
2023-03-22T10:16:33.518Z,97919.44
2023-03-22T10:19:06.700Z,97924.22
2023-03-22T10:21:37.328Z,97922.22
2023-03-22T10:24:09.607Z,97915.50
2023-03-22T10:26:40.145Z,97906.56
2023-03-22T10:29:14.029Z,97899.84
2023-03-22T10:31:44.950Z,97901.22
2023-03-22T10:34:17.798Z,97904.97
2023-03-22T10:36:48.563Z,97899.75
2023-03-22T10:39:28.311Z,97901.09
2023-03-22T10:41:58.289Z,97896.44
2023-03-22T10:44:28.093Z,97896.16
2023-03-22T10:46:58.390Z,97902.09
2023-03-22T10:49:29.863Z,97898.47
2023-03-22T10:52:04.321Z,97897.25
2023-03-22T10:54:32.777Z,97897.13
2023-03-22T10:57:01.580Z,97897.91
2023-03-22T10:59:49.727Z,97897.47
2023-03-22T11:02:20.527Z,97898.31
2023-03-22T11:04:50.579Z,97890.19
2023-03-22T11:07:32.133Z,97887.03
2023-03-22T11:10:01.172Z,97885.28
2023-03-22T11:12:29.693Z,97887.16
2023-03-22T11:14:58.126Z,97879.56
2023-03-22T11:17:27.064Z,97881.06
2023-03-22T11:19:57.411Z,97877.84
2023-03-22T11:22:32.167Z,97866.19
2023-03-22T11:25:01.332Z,97873.28
2023-03-22T11:27:33.059Z,97868.03
2023-03-22T11:30:10.484Z,97864.53
2023-03-22T11:32:40.833Z,97864.94
2023-03-22T11:35:15.800Z,97846.63
2023-03-22T11:37:48.235Z,97841.41
2023-03-22T11:40:18.165Z,97842.72
2023-03-22T11:42:47.307Z,97832.66
2023-03-22T11:45:17.030Z,97838.44
2023-03-22T11:47:46.000Z,97819.81
2023-03-22T11:50:28.463Z,97839.84
2023-03-22T11:52:59.100Z,97831.19
2023-03-22T11:55:27.673Z,97820.56
2023-03-22T11:57:57.107Z,97817.19
2023-03-22T12:00:27.406Z,97822.34
2023-03-22T12:02:58.719Z,97815.47
2023-03-22T12:05:28.633Z,97813.44
2023-03-22T12:08:01.944Z,97811.19
2023-03-22T12:10:32.940Z,97817.34
2023-03-22T12:13:01.905Z,97804.41
2023-03-22T12:15:31.590Z,97793.53
2023-03-22T12:18:06.602Z,97803.03
2023-03-22T12:20:42.426Z,97808.72
2023-03-22T12:23:16.942Z,97791.81
2023-03-22T12:25:48.942Z,97803.97
2023-03-22T12:28:20.261Z,97798.31
2023-03-22T12:30:50.015Z,97796.53
2023-03-22T12:33:21.888Z,97792.44
2023-03-22T12:35:53.127Z,97787.28
2023-03-22T12:38:29.748Z,97797.72
2023-03-22T12:40:59.523Z,97785.75
2023-03-22T12:43:39.540Z,97781.22
2023-03-22T12:46:08.645Z,97776.50
2023-03-22T12:48:41.104Z,97779.75
2023-03-22T12:51:12.201Z,97782.75
2023-03-22T12:53:44.157Z,97778.84
2023-03-22T12:56:14.596Z,97773.00
2023-03-22T12:58:45.354Z,97774.72
2023-03-22T13:01:22.415Z,97767.06
2023-03-22T13:03:53.798Z,97763.50
2023-03-22T13:06:32.689Z,97758.38
2023-03-22T13:09:20.627Z,97772.28
2023-03-22T13:11:51.681Z,97766.13
2023-03-22T13:14:56.616Z,97759.16
2023-03-22T13:17:39.606Z,97765.88
2023-03-22T13:20:28.428Z,97759.22
2023-03-22T13:23:02.300Z,97758.72
2023-03-22T13:25:36.313Z,97757.50
2023-03-22T13:28:06.828Z,97748.66
2023-03-22T13:30:38.049Z,97746.03
2023-03-22T13:33:16.436Z,97740.03
2023-03-22T13:35:48.765Z,97734.91
2023-03-22T13:38:22.179Z,97742.91
2023-03-22T13:40:55.920Z,97745.88
2023-03-22T13:43:28.700Z,97747.47
2023-03-22T13:46:12.747Z,97739.78
2023-03-22T13:48:44.157Z,97736.22
2023-03-22T13:51:15.708Z,97729.81
2023-03-22T13:53:47.181Z,97737.22
2023-03-22T13:56:30.741Z,97725.44
2023-03-22T13:58:59.075Z,97729.66
2023-03-22T14:01:31.228Z,97723.25
2023-03-22T14:04:02.202Z,97723.88
2023-03-22T14:06:33.865Z,97714.69
2023-03-22T14:09:06.242Z,97714.31
2023-03-22T14:11:41.096Z,97714.25
2023-03-22T14:14:12.574Z,97711.44
2023-03-22T14:16:44.298Z,97707.88
2023-03-22T14:19:18.810Z,97711.78
